createdAt,value
2022-09-04T00:00:16.125Z,0.60
2022-09-04T00:03:38.210Z,0.60
2022-09-04T00:06:14.356Z,0.52
2022-09-04T00:09:40.960Z,0.50
2022-09-04T00:12:09.312Z,0.47
2022-09-04T00:14:47.996Z,0.47
2022-09-04T00:17:27.586Z,0.60
2022-09-04T00:20:02.710Z,0.80
2022-09-04T00:23:00.551Z,0.55
2022-09-04T00:25:52.403Z,0.57
2022-09-04T00:28:43.440Z,0.50
2022-09-04T00:31:38.953Z,0.70
2022-09-04T00:34:46.324Z,0.70
2022-09-04T00:37:21.511Z,0.85
2022-09-04T00:40:26.770Z,0.90
2022-09-04T00:43:32.664Z,0.80
2022-09-04T00:46:24.094Z,1.00
2022-09-04T00:49:03.244Z,1.00
2022-09-04T00:52:18.732Z,0.90
2022-09-04T00:54:55.013Z,0.65
2022-09-04T00:58:02.641Z,0.60
2022-09-04T01:00:30.887Z,0.70
2022-09-04T01:03:35.483Z,0.63
2022-09-04T01:06:58.166Z,0.68
2022-09-04T01:10:20.087Z,0.50
2022-09-04T01:13:09.597Z,0.70
2022-09-04T01:15:49.803Z,0.60
2022-09-04T01:18:35.059Z,0.50
2022-09-04T01:21:38.943Z,0.70
2022-09-04T01:24:25.658Z,0.60
2022-09-04T01:27:26.708Z,0.80
2022-09-04T01:30:12.573Z,0.60
2022-09-04T01:33:04.428Z,0.60
2022-09-04T01:36:02.611Z,0.45
2022-09-04T01:38:45.563Z,0.50
2022-09-04T01:41:38.180Z,0.40
2022-09-04T01:44:09.127Z,0.50
2022-09-04T01:47:01.181Z,0.45
2022-09-04T01:49:56.114Z,0.50
2022-09-04T01:52:42.058Z,0.57
2022-09-04T01:55:55.942Z,0.80
2022-09-04T01:58:41.919Z,0.60
2022-09-04T02:02:05.124Z,0.50
2022-09-04T02:04:46.148Z,0.50
2022-09-04T02:07:35.962Z,0.43
2022-09-04T02:10:26.711Z,0.50
2022-09-04T02:13:17.541Z,0.60
2022-09-04T02:16:01.537Z,0.50
2022-09-04T02:19:05.134Z,0.60
2022-09-04T02:21:41.413Z,0.57
2022-09-04T02:24:35.096Z,0.57
2022-09-04T02:27:18.899Z,0.60
2022-09-04T02:30:11.901Z,0.68
2022-09-04T02:33:03.145Z,0.57
2022-09-04T02:35:48.975Z,0.63
2022-09-04T02:38:59.713Z,0.63
2022-09-04T02:42:00.689Z,0.80
2022-09-04T02:45:04.544Z,0.80
2022-09-04T02:47:45.976Z,0.60
2022-09-04T02:50:50.259Z,0.80
2022-09-04T02:54:03.457Z,0.80
2022-09-04T02:56:49.485Z,0.82
2022-09-04T03:00:05.559Z,1.20
2022-09-04T03:03:04.320Z,0.93
2022-09-04T03:05:47.288Z,0.82
2022-09-04T03:08:23.881Z,1.00
2022-09-04T03:11:06.247Z,0.68
2022-09-04T03:13:38.461Z,0.90
2022-09-04T03:16:34.311Z,0.60
2022-09-04T03:19:30.029Z,1.13
2022-09-04T03:22:41.382Z,0.70
2022-09-04T03:25:34.026Z,1.13
2022-09-04T03:28:02.139Z,0.85
2022-09-04T03:30:35.728Z,0.88
2022-09-04T03:33:29.705Z,0.90
2022-09-04T03:36:14.072Z,0.80
2022-09-04T03:39:04.625Z,0.95
2022-09-04T03:42:05.204Z,0.70
2022-09-04T03:44:45.354Z,0.70
2022-09-04T03:47:46.910Z,0.70
2022-09-04T03:50:16.889Z,0.90
2022-09-04T03:53:20.433Z,0.68
2022-09-04T03:56:06.979Z,0.52
2022-09-04T03:59:04.823Z,0.60
2022-09-04T04:01:55.861Z,0.88
2022-09-04T04:04:52.330Z,1.35
2022-09-04T04:07:22.414Z,0.60
2022-09-04T04:10:21.399Z,0.80
2022-09-04T04:13:38.721Z,0.80
2022-09-04T04:16:11.676Z,1.13
2022-09-04T04:18:54.926Z,0.70
2022-09-04T04:22:19.357Z,0.90
2022-09-04T04:26:00.755Z,0.70
2022-09-04T04:28:56.374Z,0.80
2022-09-04T04:31:35.086Z,0.70
2022-09-04T04:34:26.200Z,0.70
2022-09-04T04:37:25.699Z,0.68
2022-09-04T04:40:03.468Z,0.85
2022-09-04T04:42:49.588Z,1.00
2022-09-04T04:45:47.455Z,0.88
2022-09-04T04:48:36.839Z,1.10
2022-09-04T04:51:40.805Z,0.90
2022-09-04T04:54:20.422Z,0.80
2022-09-04T04:57:22.323Z,1.10
2022-09-04T05:00:18.816Z,0.63
2022-09-04T05:03:00.877Z,0.68
2022-09-04T05:08:57.833Z,0.50
2022-09-04T05:11:48.731Z,0.57
2022-09-04T05:14:51.253Z,0.70
2022-09-04T05:17:51.685Z,0.65
2022-09-04T05:20:44.744Z,0.80
2022-09-04T05:23:11.889Z,0.90
2022-09-04T05:25:53.245Z,0.93
2022-09-04T05:28:48.610Z,1.00
2022-09-04T05:31:33.160Z,1.05
2022-09-04T05:34:20.663Z,0.85
2022-09-04T05:37:23.798Z,1.00
2022-09-04T05:40:21.127Z,1.10
2022-09-04T05:43:15.722Z,1.02
2022-09-04T05:46:32.633Z,1.00
2022-09-04T05:49:52.435Z,1.00
2022-09-04T05:52:50.310Z,0.88
2022-09-04T05:56:12.090Z,1.40
2022-09-04T05:59:16.281Z,1.10
2022-09-04T06:02:04.766Z,0.90
2022-09-04T06:05:09.566Z,1.05
2022-09-04T06:08:08.582Z,1.20
2022-09-04T06:11:00.632Z,0.95
2022-09-04T06:14:11.189Z,0.95
2022-09-04T06:17:15.079Z,1.00
2022-09-04T06:19:48.450Z,0.75
2022-09-04T06:22:36.479Z,1.10
2022-09-04T06:25:54.442Z,1.15
2022-09-04T06:28:37.411Z,0.90
2022-09-04T06:31:19.949Z,1.63
2022-09-04T06:34:10.615Z,2.33
2022-09-04T06:36:38.770Z,3.17
2022-09-04T06:39:31.173Z,3.13
2022-09-04T06:42:23.982Z,3.35
2022-09-04T06:45:31.646Z,3.17
2022-09-04T06:48:26.037Z,3.20
2022-09-04T06:51:15.995Z,2.17
2022-09-04T06:54:20.407Z,1.90
2022-09-04T06:57:13.079Z,1.65
2022-09-04T07:00:13.399Z,1.70
2022-09-04T07:03:07.086Z,1.58
2022-09-04T07:06:01.143Z,1.77
2022-09-04T07:09:05.142Z,1.70
2022-09-04T07:12:02.485Z,1.77
2022-09-04T07:15:14.840Z,1.77
2022-09-04T07:18:06.780Z,1.80
2022-09-04T07:21:00.260Z,2.00
2022-09-04T07:23:58.974Z,2.03
2022-09-04T07:26:47.740Z,2.05
2022-09-04T07:29:30.019Z,2.10
2022-09-04T07:32:36.769Z,1.90
2022-09-04T07:35:25.239Z,2.03
2022-09-04T07:38:25.982Z,2.25
2022-09-04T07:41:19.897Z,2.25
2022-09-04T07:44:30.041Z,2.55
2022-09-04T07:47:18.162Z,2.17
2022-09-04T07:49:56.485Z,2.33
2022-09-04T07:53:06.307Z,2.63
2022-09-04T07:55:47.016Z,2.25
2022-09-04T07:58:54.049Z,2.50
2022-09-04T08:01:40.561Z,2.25
2022-09-04T08:04:15.119Z,2.33
2022-09-04T08:07:11.406Z,2.25
2022-09-04T08:10:32.104Z,2.35
2022-09-04T08:13:34.361Z,2.42
2022-09-04T08:16:04.208Z,2.30
2022-09-04T08:18:53.250Z,2.63
2022-09-04T08:21:31.026Z,2.90
2022-09-04T08:24:54.690Z,2.63
2022-09-04T08:28:03.372Z,2.90
2022-09-04T08:30:42.773Z,2.65
2022-09-04T08:33:29.797Z,2.80
2022-09-04T08:36:17.769Z,3.00
2022-09-04T08:38:55.620Z,2.63
2022-09-04T08:42:19.926Z,2.55
2022-09-04T08:45:06.623Z,3.15
2022-09-04T08:48:19.577Z,3.05
2022-09-04T08:51:36.203Z,3.15
2022-09-04T08:54:21.920Z,3.13
2022-09-04T08:57:37.362Z,3.47
2022-09-04T09:00:44.461Z,3.03
2022-09-04T09:03:45.676Z,2.80
2022-09-04T09:06:53.130Z,2.63
2022-09-04T09:09:35.090Z,3.17
2022-09-04T09:12:25.766Z,3.05
2022-09-04T09:15:29.183Z,3.10
2022-09-04T09:18:23.320Z,3.03
2022-09-04T09:21:42.261Z,2.88
2022-09-04T09:24:21.185Z,2.70
2022-09-04T09:27:11.916Z,3.10
2022-09-04T09:30:23.983Z,2.65
2022-09-04T09:33:37.504Z,2.78
2022-09-04T09:36:34.823Z,2.50
2022-09-04T09:39:40.908Z,2.30
2022-09-04T09:42:44.770Z,2.28
2022-09-04T09:45:55.998Z,2.28
2022-09-04T09:49:02.221Z,2.22
2022-09-04T09:51:56.944Z,2.15
2022-09-04T09:54:37.988Z,2.42
2022-09-04T09:57:39.130Z,2.33
2022-09-04T10:00:14.930Z,1.88
2022-09-04T10:03:24.552Z,1.63
2022-09-04T10:06:13.202Z,1.75
2022-09-04T10:09:20.671Z,1.33
2022-09-04T10:12:31.045Z,1.50
2022-09-04T10:15:22.223Z,1.73
2022-09-04T10:18:24.392Z,1.52
2022-09-04T10:21:58.042Z,1.35
2022-09-04T10:24:57.657Z,1.23
2022-09-04T10:27:59.910Z,1.23
2022-09-04T10:31:05.418Z,1.08
2022-09-04T10:34:24.141Z,1.20
2022-09-04T10:37:38.245Z,1.05
2022-09-04T10:40:29.784Z,1.10
2022-09-04T10:43:30.974Z,1.00
2022-09-04T10:46:26.280Z,1.27
2022-09-04T10:49:32.005Z,1.20
2022-09-04T10:52:32.798Z,1.10
2022-09-04T10:55:43.907Z,1.10
2022-09-04T10:59:21.316Z,1.10
2022-09-04T11:02:11.491Z,1.00
2022-09-04T11:05:09.445Z,0.98
2022-09-04T11:07:59.488Z,1.25
2022-09-04T11:11:08.104Z,1.20
2022-09-04T11:14:09.690Z,0.98
2022-09-04T11:16:51.827Z,1.10
2022-09-04T11:20:01.944Z,0.88
2022-09-04T11:23:38.563Z,1.00
2022-09-04T11:26:27.425Z,0.90
2022-09-04T11:29:20.531Z,0.85
2022-09-04T11:32:13.752Z,0.80
2022-09-04T11:35:13.862Z,0.75
2022-09-04T11:37:59.683Z,0.80
2022-09-04T11:40:36.020Z,0.73
2022-09-04T11:43:42.837Z,0.65
2022-09-04T11:46:52.868Z,0.80
2022-09-04T11:49:41.960Z,0.70
2022-09-04T11:53:19.735Z,0.80
2022-09-04T11:56:02.080Z,0.88
2022-09-04T11:58:48.080Z,0.93
2022-09-04T12:01:32.757Z,0.90
2022-09-04T12:04:23.824Z,0.90
2022-09-04T12:07:14.722Z,0.80
2022-09-04T12:10:10.685Z,0.70
2022-09-04T12:12:49.757Z,0.70
2022-09-04T12:15:44.591Z,0.80
2022-09-04T12:18:29.362Z,0.65
2022-09-04T12:21:38.214Z,0.65
2022-09-04T12:25:14.591Z,0.70
2022-09-04T12:28:52.341Z,0.90
2022-09-04T12:31:27.973Z,0.70
2022-09-04T12:34:11.010Z,0.80
2022-09-04T12:37:19.968Z,0.70
2022-09-04T12:40:09.461Z,0.90
2022-09-04T12:43:07.052Z,0.82
2022-09-04T12:46:12.889Z,0.77
2022-09-04T12:49:11.139Z,0.70
2022-09-04T12:52:07.035Z,0.90
2022-09-04T12:55:01.406Z,0.90
2022-09-04T12:57:30.550Z,0.90
2022-09-04T13:00:13.265Z,0.90
2022-09-04T13:03:10.398Z,0.90
2022-09-04T13:06:21.137Z,0.80
2022-09-04T13:09:04.112Z,1.00
2022-09-04T13:11:55.956Z,1.00
2022-09-04T13:15:19.558Z,0.80
2022-09-04T13:18:24.336Z,0.90
2022-09-04T13:21:09.079Z,0.85
2022-09-04T13:24:19.715Z,0.77
2022-09-04T13:27:40.331Z,0.85
2022-09-04T13:30:20.817Z,0.65
2022-09-04T13:33:11.397Z,0.90
2022-09-04T13:35:59.397Z,1.00
2022-09-04T13:38:37.392Z,1.05
2022-09-04T13:41:48.123Z,0.90
2022-09-04T13:44:38.504Z,1.00
2022-09-04T13:47:09.835Z,0.68
2022-09-04T13:49:48.226Z,0.88
2022-09-04T13:52:55.914Z,0.80
2022-09-04T13:55:30.804Z,0.80
2022-09-04T13:58:22.283Z,0.70
2022-09-04T14:00:59.430Z,0.70
2022-09-04T14:03:48.791Z,0.80
2022-09-04T14:06:20.121Z,0.70
2022-09-04T14:08:59.671Z,0.70
2022-09-04T14:12:38.621Z,0.70
2022-09-04T14:15:32.956Z,0.60
2022-09-04T14:19:06.901Z,0.70
2022-09-04T14:22:39.614Z,0.70
2022-09-04T14:25:33.496Z,0.70
2022-09-04T14:28:38.331Z,0.63
2022-09-04T14:31:24.247Z,0.60
2022-09-04T14:34:16.961Z,0.52
2022-09-04T14:37:16.314Z,0.60
2022-09-04T14:39:58.452Z,0.60
2022-09-04T14:42:45.808Z,0.60
2022-09-04T14:45:47.161Z,0.50
2022-09-04T14:48:17.794Z,0.60
2022-09-04T14:51:00.161Z,0.77
2022-09-04T14:53:33.470Z,0.60
2022-09-04T14:56:35.015Z,0.70
2022-09-04T14:59:21.447Z,0.60
2022-09-04T15:02:29.237Z,0.60
2022-09-04T15:05:27.776Z,0.60
2022-09-04T15:08:07.591Z,0.50
2022-09-04T15:10:50.880Z,0.50
2022-09-04T15:13:31.395Z,0.52
2022-09-04T15:16:40.314Z,0.60
2022-09-04T15:20:00.704Z,0.60
2022-09-04T15:22:46.889Z,0.65
2022-09-04T15:25:59.283Z,0.60
2022-09-04T15:28:45.037Z,0.43
2022-09-04T15:31:28.974Z,0.40
2022-09-04T15:34:11.057Z,0.30
2022-09-04T15:36:39.376Z,0.70
2022-09-04T15:39:18.156Z,0.40
2022-09-04T15:41:50.153Z,2.80
2022-09-04T15:44:38.941Z,2.65
2022-09-04T15:47:36.591Z,1.73
2022-09-04T15:50:24.827Z,1.20
2022-09-04T15:53:26.796Z,0.95
2022-09-04T15:56:09.561Z,0.60
2022-09-04T15:58:47.991Z,0.50
2022-09-04T16:01:23.859Z,0.40
2022-09-04T16:04:28.581Z,0.47
2022-09-04T16:07:19.681Z,0.40
2022-09-04T16:09:53.184Z,0.50
2022-09-04T16:12:30.937Z,0.40
2022-09-04T16:15:27.179Z,0.47
2022-09-04T16:17:56.453Z,0.40
2022-09-04T16:20:35.390Z,0.45
2022-09-04T16:23:08.790Z,0.40
2022-09-04T16:25:49.831Z,0.47
2022-09-04T16:28:50.489Z,0.40
2022-09-04T16:31:40.069Z,0.50
2022-09-04T16:34:21.608Z,0.40
2022-09-04T16:37:02.043Z,0.40
2022-09-04T16:39:56.702Z,0.40
2022-09-04T16:43:15.547Z,0.30
2022-09-04T16:46:27.595Z,0.40
2022-09-04T16:49:21.108Z,0.40
2022-09-04T16:52:22.103Z,0.50
2022-09-04T16:54:55.470Z,0.43
2022-09-04T16:57:38.765Z,0.40
2022-09-04T17:00:14.391Z,0.30
2022-09-04T17:02:52.876Z,0.40
2022-09-04T17:05:40.132Z,0.30
2022-09-04T17:08:36.966Z,0.40
2022-09-04T17:11:22.892Z,0.30
2022-09-04T17:14:09.799Z,0.47
2022-09-04T17:17:29.911Z,0.40
2022-09-04T17:20:09.122Z,0.50
2022-09-04T17:29:03.495Z,0.50
2022-09-04T17:29:12.872Z,0.40
2022-09-04T17:29:36.218Z,0.50
2022-09-04T17:34:19.485Z,0.40
2022-09-04T17:40:32.781Z,0.50
2022-09-04T17:40:46.388Z,0.60
2022-09-04T17:41:52.083Z,0.40
2022-09-04T17:47:34.228Z,0.40
2022-09-04T17:50:02.561Z,0.68
2022-09-04T17:52:55.399Z,0.90
2022-09-04T17:55:23.247Z,0.70
2022-09-04T17:58:06.435Z,0.60
2022-09-04T18:01:14.198Z,0.68
2022-09-04T18:04:22.276Z,0.70
2022-09-04T18:07:39.627Z,0.60
2022-09-04T18:10:09.135Z,0.73
2022-09-04T18:13:36.842Z,0.90
2022-09-04T18:16:20.994Z,0.80
2022-09-04T18:19:00.067Z,0.80
2022-09-04T18:22:22.096Z,0.73
2022-09-04T18:25:16.871Z,0.50
2022-09-04T18:28:12.980Z,0.70
2022-09-04T18:37:08.131Z,0.90
2022-09-04T18:37:24.934Z,0.80
2022-09-04T18:37:41.857Z,0.70
2022-09-04T18:41:00.780Z,0.75
2022-09-04T18:50:20.951Z,0.70
2022-09-04T18:50:36.968Z,0.80
2022-09-04T18:50:52.096Z,0.90
2022-09-04T18:52:19.559Z,0.70
2022-09-04T18:54:54.111Z,0.68
2022-09-04T18:57:34.634Z,0.80
2022-09-04T19:00:13.755Z,0.90
2022-09-04T19:02:55.621Z,1.30
2022-09-04T19:05:36.462Z,0.70
2022-09-04T19:08:21.850Z,0.88
2022-09-04T19:10:55.216Z,0.90
2022-09-04T19:13:36.698Z,0.70
2022-09-04T19:16:28.495Z,0.88
2022-09-04T19:19:29.752Z,0.65
2022-09-04T19:22:38.155Z,0.80
2022-09-04T19:25:22.675Z,0.98
2022-09-04T19:27:56.708Z,0.90
2022-09-04T19:30:26.975Z,1.00
2022-09-04T19:33:16.513Z,1.08
2022-09-04T19:35:51.083Z,1.88
2022-09-04T19:45:53.495Z,1.80
2022-09-04T19:46:06.405Z,1.95
2022-09-04T19:46:19.602Z,1.70
2022-09-04T19:47:28.864Z,1.25
2022-09-04T19:52:23.687Z,1.30
2022-09-04T19:53:37.606Z,1.13
2022-09-04T19:56:38.085Z,1.10
2022-09-04T19:59:32.285Z,1.75
2022-09-04T20:01:59.615Z,1.65
2022-09-04T20:04:48.729Z,1.60
2022-09-04T20:07:48.677Z,1.50
2022-09-04T20:10:49.758Z,1.50
2022-09-04T20:13:46.462Z,1.30
2022-09-04T20:16:17.055Z,1.10
2022-09-04T20:19:28.022Z,1.40
2022-09-04T20:23:34.852Z,1.35
2022-09-04T20:26:27.957Z,1.25
2022-09-04T20:29:43.852Z,1.23
2022-09-04T20:33:11.694Z,1.50
2022-09-04T20:35:50.024Z,1.30
2022-09-04T20:38:56.443Z,1.83
2022-09-04T20:41:49.789Z,1.38
2022-09-04T20:44:31.134Z,1.30
2022-09-04T20:52:44.896Z,1.27
2022-09-04T20:52:49.132Z,1.20
2022-09-04T20:54:03.455Z,1.15
2022-09-04T21:00:31.392Z,1.13
2022-09-04T21:03:29.478Z,0.90
2022-09-04T21:06:25.416Z,1.02
2022-09-04T21:09:10.795Z,1.10
2022-09-04T21:11:50.301Z,1.10
2022-09-04T21:14:44.890Z,1.00
2022-09-04T21:17:54.013Z,1.17
2022-09-04T21:20:34.234Z,0.85
2022-09-04T21:23:29.167Z,1.10
2022-09-04T21:26:38.166Z,0.90
2022-09-04T21:29:33.281Z,1.00
2022-09-04T21:32:36.592Z,0.75
2022-09-04T21:35:24.296Z,0.88
2022-09-04T21:38:41.682Z,0.73
2022-09-04T21:41:42.651Z,0.80
2022-09-04T21:44:56.938Z,0.80
2022-09-04T21:47:44.946Z,0.80
2022-09-04T21:50:53.480Z,0.80
2022-09-04T21:53:45.443Z,0.98
2022-09-04T22:02:29.484Z,0.82
2022-09-04T22:02:35.466Z,0.82
2022-09-04T22:03:29.678Z,0.80
2022-09-04T22:07:59.698Z,1.13
2022-09-04T22:13:27.105Z,0.90
2022-09-04T22:13:38.066Z,1.00
2022-09-04T22:15:51.522Z,0.90
2022-09-04T22:19:14.671Z,1.17
2022-09-04T22:22:05.015Z,1.08
2022-09-04T22:25:06.553Z,1.05
2022-09-04T22:28:33.958Z,1.30
2022-09-04T22:31:24.602Z,0.90
2022-09-04T22:34:25.038Z,1.10
2022-09-04T22:37:33.255Z,1.05
2022-09-04T22:40:33.103Z,0.80
2022-09-04T22:43:20.149Z,0.90
2022-09-04T22:46:02.667Z,1.10
2022-09-04T22:49:12.011Z,0.90
2022-09-04T22:52:25.990Z,1.00
2022-09-04T22:55:38.857Z,0.85
2022-09-04T22:58:38.325Z,0.52
2022-09-04T23:01:50.989Z,0.80
2022-09-04T23:04:57.818Z,0.95
2022-09-04T23:12:28.569Z,1.00
2022-09-04T23:13:49.425Z,0.90
2022-09-04T23:14:02.133Z,1.00
2022-09-04T23:16:44.386Z,1.23
2022-09-04T23:26:19.747Z,1.30
2022-09-04T23:26:50.180Z,0.77
2022-09-04T23:26:59.439Z,1.13
2022-09-04T23:30:02.368Z,1.38
2022-09-04T23:33:11.868Z,1.25
2022-09-04T23:36:28.530Z,1.27
2022-09-04T23:39:32.589Z,1.20
2022-09-04T23:42:20.747Z,1.20
2022-09-04T23:46:01.853Z,1.30
2022-09-04T23:48:44.243Z,1.42
2022-09-04T23:54:34.126Z,1.23
